Forest Grove, Oregon
Current Conditions -  °F | °C
As of 6:53 PM on Friday 21 Nov 2014 (Local Time) from KHIO Reporting Station
Light Rain Light Rain  
Wind Chill: 54°   Ceiling: 1200
Heat Index: 54°   Visibility: 10mi
Dew Point: 53°   Wind: 12mph
Humidity: 97%   Direction: 200°SSW
Pressure: 29.44"   Gusts: 22mph
Location:  45.52°N, 123.11°W
Report Text: KHIO 220253Z 20010G19KT 10SM -RA SCT008 BKN012 OVC030 12/12 A2944 RMK AO2 PK WND 16026/0155 SLP970 P0003 60008 T01220117 55008
Loading
Personal Weather Stations






























Interactive Weather Map New forecast layout! Learn more

10-Day Weather Forecast

Advertisements
Track Severe Weather on mobile